createdAt,value
2018-05-14T00:00:31.473Z,100.0
2018-05-14T00:01:33.052Z,100.0
2018-05-14T00:02:34.660Z,100.0
2018-05-14T00:03:36.280Z,100.0
2018-05-14T00:04:37.887Z,100.0
2018-05-14T00:05:39.505Z,100.0
2018-05-14T00:06:41.872Z,100.0
2018-05-14T00:07:43.485Z,100.0
2018-05-14T00:08:45.113Z,100.0
2018-05-14T00:09:46.717Z,100.0
2018-05-14T00:10:48.331Z,100.0
2018-05-14T00:11:49.945Z,100.0
2018-05-14T00:12:51.560Z,100.0
2018-05-14T00:13:53.177Z,100.0
2018-05-14T00:14:54.793Z,100.0
2018-05-14T00:15:56.404Z,100.0
2018-05-14T00:16:58.020Z,100.0
2018-05-14T00:17:59.633Z,100.0
2018-05-14T00:19:01.248Z,100.0
2018-05-14T00:20:02.870Z,100.0
2018-05-14T00:21:04.486Z,100.0
2018-05-14T00:22:06.099Z,100.0
2018-05-14T00:23:07.721Z,100.0
2018-05-14T00:24:09.329Z,100.0
2018-05-14T00:25:10.944Z,100.0
2018-05-14T00:26:12.561Z,100.0
2018-05-14T00:27:14.172Z,100.0
2018-05-14T00:28:15.785Z,100.0
2018-05-14T00:29:17.407Z,100.0
2018-05-14T00:30:19.021Z,100.0
2018-05-14T00:31:20.640Z,100.0
2018-05-14T00:32:22.249Z,100.0
2018-05-14T00:33:23.864Z,100.0
2018-05-14T00:34:25.511Z,100.0
2018-05-14T00:35:27.087Z,100.0
2018-05-14T00:36:28.707Z,100.0
2018-05-14T00:37:30.328Z,100.0
2018-05-14T00:38:31.936Z,100.0
2018-05-14T00:39:33.558Z,100.0
2018-05-14T00:40:35.167Z,100.0
2018-05-14T00:41:36.780Z,100.0
2018-05-14T00:42:38.397Z,100.0
2018-05-14T00:43:40.011Z,100.0
2018-05-14T00:44:41.627Z,100.0
2018-05-14T00:45:43.243Z,100.0
2018-05-14T00:46:45.596Z,100.0
2018-05-14T00:47:47.965Z,100.0
2018-05-14T00:48:49.880Z,100.0
2018-05-14T00:49:52.492Z,100.0
2018-05-14T00:50:55.667Z,100.0
2018-05-14T00:52:00.073Z,100.0
2018-05-14T00:53:04.777Z,100.0
2018-05-14T00:54:06.342Z,100.0
2018-05-14T00:55:08.348Z,100.0
2018-05-14T00:56:11.276Z,100.0
2018-05-14T00:57:13.672Z,100.0
2018-05-14T00:58:16.094Z,100.0
2018-05-14T00:59:17.975Z,100.0
2018-05-14T01:00:19.588Z,100.0
2018-05-14T01:01:21.768Z,100.0
2018-05-14T01:02:23.394Z,100.0
2018-05-14T01:03:25.125Z,100.0
2018-05-14T01:04:27.219Z,100.0
2018-05-14T01:05:29.550Z,100.0
2018-05-14T01:06:31.363Z,100.0
2018-05-14T01:07:32.974Z,100.0
2018-05-14T01:08:35.102Z,100.0
2018-05-14T01:09:38.716Z,100.0
2018-05-14T01:10:41.123Z,100.0
2018-05-14T01:11:43.098Z,100.0
2018-05-14T01:12:45.445Z,100.0
2018-05-14T01:13:47.630Z,100.0
2018-05-14T01:14:49.242Z,100.0
2018-05-14T01:15:50.859Z,100.0
2018-05-14T01:16:53.403Z,100.0
2018-05-14T01:17:56.205Z,100.0
2018-05-14T01:18:58.585Z,100.0
2018-05-14T01:20:00.967Z,100.0
2018-05-14T01:21:03.120Z,100.0
2018-05-14T01:22:04.737Z,100.0
2018-05-14T01:23:06.626Z,100.0
2018-05-14T01:24:09.010Z,100.0
2018-05-14T01:25:11.522Z,100.0
2018-05-14T01:26:13.920Z,100.0
2018-05-14T01:27:15.538Z,100.0
2018-05-14T01:28:17.970Z,100.0
2018-05-14T01:29:20.100Z,100.0
2018-05-14T01:30:24.449Z,100.0
2018-05-14T01:31:28.371Z,100.0
2018-05-14T01:32:33.188Z,100.0
2018-05-14T01:33:36.793Z,100.0
2018-05-14T01:34:39.003Z,100.0
2018-05-14T01:35:40.620Z,100.0
2018-05-14T01:36:42.240Z,100.0
2018-05-14T01:37:44.299Z,100.0
2018-05-14T01:38:48.753Z,100.0
2018-05-14T01:39:51.940Z,100.0
2018-05-14T01:40:54.305Z,100.0
2018-05-14T01:41:55.975Z,100.0
2018-05-14T01:42:58.546Z,100.0
2018-05-14T01:44:00.119Z,100.0
2018-05-14T01:45:01.738Z,100.0
2018-05-14T01:46:03.356Z,100.0
2018-05-14T01:47:04.969Z,100.0
2018-05-14T01:48:06.591Z,100.0
2018-05-14T01:49:08.202Z,100.0
2018-05-14T01:50:09.818Z,100.0
2018-05-14T01:51:11.435Z,100.0
2018-05-14T01:52:13.054Z,100.0
2018-05-14T01:53:14.662Z,100.0
2018-05-14T01:54:16.274Z,100.0
2018-05-14T01:55:17.895Z,100.0
2018-05-14T01:56:19.506Z,100.0
2018-05-14T01:57:21.125Z,100.0
2018-05-14T01:58:22.744Z,100.0
2018-05-14T01:59:24.360Z,100.0
2018-05-14T02:00:25.971Z,100.0
2018-05-14T02:01:27.587Z,100.0
2018-05-14T02:02:29.198Z,100.0
2018-05-14T02:03:30.821Z,100.0
2018-05-14T02:04:32.431Z,100.0
2018-05-14T02:05:34.049Z,100.0
2018-05-14T02:06:35.665Z,100.0
2018-05-14T02:07:37.278Z,100.0
2018-05-14T02:08:38.899Z,100.0
2018-05-14T02:09:40.516Z,100.0
2018-05-14T02:10:42.134Z,100.0
2018-05-14T02:11:43.753Z,100.0
2018-05-14T02:12:45.374Z,100.0
2018-05-14T02:13:46.981Z,100.0
2018-05-14T02:14:48.596Z,100.0
2018-05-14T02:15:50.207Z,100.0
2018-05-14T02:16:51.822Z,100.0
2018-05-14T02:17:53.444Z,100.0
2018-05-14T02:18:55.064Z,100.0
2018-05-14T02:19:56.673Z,100.0
2018-05-14T02:20:58.285Z,100.0
2018-05-14T02:21:59.902Z,100.0
2018-05-14T02:23:01.515Z,100.0
2018-05-14T02:24:03.130Z,100.0
2018-05-14T02:25:04.748Z,100.0
2018-05-14T02:26:06.366Z,100.0
2018-05-14T02:27:07.979Z,100.0
2018-05-14T02:28:09.590Z,100.0
2018-05-14T02:29:11.207Z,100.0
2018-05-14T02:30:12.825Z,100.0
2018-05-14T02:31:14.440Z,100.0
2018-05-14T02:32:16.053Z,100.0
2018-05-14T02:33:17.670Z,100.0
2018-05-14T02:34:19.284Z,100.0
2018-05-14T02:35:20.902Z,100.0
2018-05-14T02:36:22.512Z,100.0
2018-05-14T02:37:24.125Z,100.0
2018-05-14T02:38:25.744Z,100.0
2018-05-14T02:39:27.359Z,100.0
2018-05-14T02:40:28.976Z,100.0
2018-05-14T02:41:30.584Z,100.0
2018-05-14T02:42:32.204Z,100.0
2018-05-14T02:43:33.820Z,100.0
2018-05-14T02:44:35.431Z,100.0
2018-05-14T02:45:37.055Z,100.0
2018-05-14T02:46:38.676Z,100.0
2018-05-14T02:47:40.283Z,100.0
2018-05-14T02:48:41.899Z,100.0
2018-05-14T02:49:43.519Z,100.0
2018-05-14T02:50:45.127Z,100.0
2018-05-14T02:51:46.740Z,100.0
2018-05-14T02:52:48.357Z,100.0
2018-05-14T02:53:49.970Z,100.0
2018-05-14T02:54:51.589Z,100.0
2018-05-14T02:55:53.205Z,100.0
2018-05-14T02:56:54.822Z,100.0
2018-05-14T02:57:56.547Z,100.0
2018-05-14T02:58:58.052Z,100.0
2018-05-14T02:59:59.662Z,100.0
2018-05-14T03:01:01.282Z,100.0
2018-05-14T03:02:02.900Z,100.0
2018-05-14T03:03:04.522Z,100.0
2018-05-14T03:04:06.136Z,100.0
2018-05-14T03:05:07.746Z,100.0
2018-05-14T03:06:09.930Z,100.0
2018-05-14T03:07:12.116Z,100.0
2018-05-14T03:08:13.736Z,100.0
2018-05-14T03:09:15.361Z,100.0
2018-05-14T03:10:16.971Z,100.0
2018-05-14T03:11:18.583Z,100.0
2018-05-14T03:12:20.194Z,100.0
2018-05-14T03:13:21.815Z,100.0
2018-05-14T03:14:23.423Z,100.0
2018-05-14T03:15:25.038Z,100.0
2018-05-14T03:16:26.654Z,100.0
2018-05-14T03:17:28.261Z,100.0
2018-05-14T03:18:29.874Z,100.0
2018-05-14T03:19:31.487Z,100.0
2018-05-14T03:20:33.101Z,100.0
2018-05-14T03:21:34.721Z,100.0
2018-05-14T03:22:36.346Z,100.0
2018-05-14T03:23:37.951Z,100.0
2018-05-14T03:24:39.571Z,100.0
2018-05-14T03:25:41.184Z,100.0
2018-05-14T03:26:42.796Z,100.0
2018-05-14T03:27:44.416Z,100.0
2018-05-14T03:28:46.034Z,100.0
2018-05-14T03:29:47.651Z,100.0
2018-05-14T03:30:49.275Z,100.0
2018-05-14T03:31:50.890Z,100.0
2018-05-14T03:32:52.498Z,100.0
2018-05-14T03:33:54.114Z,100.0
2018-05-14T03:34:55.733Z,100.0
2018-05-14T03:35:57.349Z,100.0
2018-05-14T03:36:58.966Z,100.0
2018-05-14T03:38:00.585Z,100.0
2018-05-14T03:39:02.202Z,100.0
2018-05-14T03:40:03.817Z,100.0
2018-05-14T03:41:05.428Z,100.0
2018-05-14T03:42:07.051Z,100.0
2018-05-14T03:43:08.673Z,100.0
2018-05-14T03:44:10.285Z,100.0
2018-05-14T03:45:11.903Z,100.0
2018-05-14T03:46:13.525Z,100.0
2018-05-14T03:47:15.137Z,100.0
2018-05-14T03:48:16.755Z,100.0
2018-05-14T03:49:18.378Z,100.0
2018-05-14T03:50:19.999Z,100.0
2018-05-14T03:51:21.625Z,100.0
2018-05-14T03:52:23.236Z,100.0
2018-05-14T03:53:24.852Z,100.0
2018-05-14T03:54:26.476Z,100.0
2018-05-14T03:55:28.092Z,100.0
2018-05-14T03:56:29.712Z,100.0
2018-05-14T03:57:31.329Z,100.0
2018-05-14T03:58:32.952Z,100.0
2018-05-14T03:59:34.570Z,100.0
2018-05-14T04:00:36.191Z,100.0
2018-05-14T04:01:37.974Z,100.0
2018-05-14T04:02:39.585Z,100.0
2018-05-14T04:03:41.214Z,100.0
2018-05-14T04:04:42.832Z,100.0
2018-05-14T04:05:44.448Z,100.0
2018-05-14T04:06:46.063Z,100.0
2018-05-14T04:07:47.679Z,100.0
2018-05-14T04:08:49.302Z,100.0
2018-05-14T04:09:50.921Z,100.0
2018-05-14T04:10:52.542Z,100.0
2018-05-14T04:11:54.167Z,100.0
2018-05-14T04:12:55.778Z,100.0
2018-05-14T04:13:57.399Z,100.0
2018-05-14T04:14:59.014Z,100.0
2018-05-14T04:16:00.629Z,100.0
2018-05-14T04:17:02.250Z,100.0
2018-05-14T04:18:03.867Z,100.0
2018-05-14T04:19:05.483Z,100.0
2018-05-14T04:20:07.110Z,100.0
2018-05-14T04:21:08.732Z,100.0
2018-05-14T04:22:10.355Z,100.0
2018-05-14T04:23:11.970Z,100.0
2018-05-14T04:24:13.593Z,100.0
2018-05-14T04:25:15.208Z,100.0
2018-05-14T04:26:16.830Z,100.0
2018-05-14T04:27:18.447Z,100.0
2018-05-14T04:28:20.070Z,100.0
2018-05-14T04:29:21.687Z,100.0
2018-05-14T04:30:23.305Z,100.0
2018-05-14T04:31:24.930Z,100.0
2018-05-14T04:32:26.547Z,100.0
2018-05-14T04:33:28.165Z,100.0
2018-05-14T04:34:29.784Z,100.0
2018-05-14T04:35:31.407Z,100.0
2018-05-14T04:36:33.034Z,100.0
2018-05-14T04:37:34.652Z,100.0
2018-05-14T04:38:36.267Z,100.0
2018-05-14T04:39:37.890Z,100.0
2018-05-14T04:40:39.512Z,100.0
2018-05-14T04:41:41.130Z,100.0
2018-05-14T04:42:42.758Z,100.0
2018-05-14T04:43:44.370Z,100.0
2018-05-14T04:44:45.991Z,100.0
2018-05-14T04:45:47.617Z,100.0
2018-05-14T04:46:49.237Z,100.0
2018-05-14T04:47:50.856Z,100.0
2018-05-14T04:48:52.476Z,100.0
2018-05-14T04:49:54.104Z,100.0
2018-05-14T04:50:55.717Z,100.0
2018-05-14T04:51:57.343Z,100.0
2018-05-14T04:52:58.952Z,100.0
2018-05-14T04:54:00.573Z,100.0
2018-05-14T04:55:02.201Z,100.0
2018-05-14T04:56:03.822Z,100.0
2018-05-14T04:57:05.448Z,100.0
2018-05-14T04:58:07.065Z,100.0
2018-05-14T04:59:08.738Z,100.0
2018-05-14T05:00:10.307Z,100.0
2018-05-14T05:01:11.929Z,100.0
2018-05-14T05:02:13.556Z,100.0
2018-05-14T05:03:15.171Z,100.0
2018-05-14T05:04:16.799Z,100.0
2018-05-14T05:05:18.420Z,100.0
2018-05-14T05:06:20.040Z,100.0
2018-05-14T05:07:21.660Z,100.0
2018-05-14T05:08:23.277Z,100.0
2018-05-14T05:09:24.904Z,100.0
2018-05-14T05:10:26.556Z,100.0
2018-05-14T05:11:28.180Z,100.0
2018-05-14T05:12:29.765Z,100.0
2018-05-14T05:13:31.382Z,100.0
2018-05-14T05:14:33.012Z,100.0
2018-05-14T05:15:34.628Z,100.0
2018-05-14T05:16:36.250Z,100.0
2018-05-14T05:17:37.876Z,100.0
2018-05-14T05:18:39.501Z,100.0
2018-05-14T05:19:41.117Z,100.0
2018-05-14T05:20:42.740Z,100.0
2018-05-14T05:21:44.356Z,100.0
2018-05-14T05:22:45.987Z,100.0
2018-05-14T05:23:47.602Z,100.0
2018-05-14T05:24:49.226Z,100.0
2018-05-14T05:25:50.845Z,100.0
2018-05-14T05:26:52.473Z,100.0
2018-05-14T05:27:54.088Z,100.0
2018-05-14T05:28:55.717Z,100.0
2018-05-14T05:29:57.338Z,100.0
2018-05-14T05:30:58.953Z,100.0
2018-05-14T05:32:00.576Z,100.0
2018-05-14T05:33:02.193Z,100.0
2018-05-14T05:34:03.811Z,100.0
2018-05-14T05:35:05.442Z,100.0
2018-05-14T05:36:07.061Z,100.0
2018-05-14T05:37:08.682Z,100.0
2018-05-14T05:38:10.305Z,100.0
2018-05-14T05:39:11.925Z,100.0
2018-05-14T05:40:13.551Z,100.0
2018-05-14T05:41:15.175Z,100.0
2018-05-14T05:42:16.797Z,100.0
2018-05-14T05:43:18.417Z,100.0
2018-05-14T05:44:20.035Z,100.0
2018-05-14T05:45:21.745Z,100.0
2018-05-14T05:46:23.277Z,100.0
2018-05-14T05:47:24.905Z,100.0
2018-05-14T05:48:26.529Z,100.0
2018-05-14T05:49:28.144Z,100.0
2018-05-14T05:50:29.773Z,100.0
2018-05-14T05:51:31.389Z,100.0
2018-05-14T05:52:33.055Z,100.0
2018-05-14T05:53:34.632Z,100.0
2018-05-14T05:54:36.259Z,100.0
2018-05-14T05:55:37.877Z,100.0
2018-05-14T05:56:39.494Z,100.0
2018-05-14T05:57:41.119Z,100.0
2018-05-14T05:58:42.737Z,100.0
2018-05-14T05:59:44.363Z,100.0
2018-05-14T06:00:45.991Z,100.0
2018-05-14T06:01:47.611Z,100.0
2018-05-14T06:02:49.231Z,100.0
2018-05-14T06:03:50.855Z,100.0
2018-05-14T06:04:52.471Z,100.0
2018-05-14T06:05:54.099Z,100.0
2018-05-14T06:06:55.716Z,100.0
2018-05-14T06:07:57.346Z,100.0
2018-05-14T06:08:58.967Z,100.0
2018-05-14T06:10:00.595Z,100.0
2018-05-14T06:11:02.225Z,100.0
2018-05-14T06:12:03.847Z,100.0
2018-05-14T06:13:05.475Z,100.0
2018-05-14T06:14:07.092Z,100.0
2018-05-14T06:15:08.717Z,100.0
2018-05-14T06:16:10.344Z,100.0
2018-05-14T06:17:11.964Z,100.0
2018-05-14T06:18:13.588Z,100.0
2018-05-14T06:19:15.201Z,100.0
2018-05-14T06:20:16.830Z,100.0
2018-05-14T06:21:18.457Z,100.0
2018-05-14T06:22:20.149Z,100.0
2018-05-14T06:23:21.700Z,100.0
2018-05-14T06:24:23.322Z,100.0
2018-05-14T06:25:24.939Z,100.0
2018-05-14T06:26:26.566Z,100.0
2018-05-14T06:27:28.188Z,100.0
2018-05-14T06:28:29.810Z,100.0
2018-05-14T06:29:31.435Z,100.0
2018-05-14T06:30:33.060Z,100.0
2018-05-14T06:31:34.677Z,100.0
2018-05-14T06:32:36.298Z,100.0
2018-05-14T06:33:37.918Z,100.0
2018-05-14T06:34:39.543Z,100.0
2018-05-14T06:35:41.196Z,100.0
2018-05-14T06:36:42.794Z,100.0
2018-05-14T06:37:44.415Z,100.0
2018-05-14T06:38:46.035Z,100.0
2018-05-14T06:39:47.658Z,100.0
2018-05-14T06:40:49.276Z,100.0
2018-05-14T06:41:50.902Z,100.0
2018-05-14T06:42:52.521Z,100.0
2018-05-14T06:43:54.144Z,100.0
2018-05-14T06:44:55.771Z,100.0
2018-05-14T06:45:57.391Z,100.0
2018-05-14T06:46:59.019Z,100.0
2018-05-14T06:48:00.645Z,100.0
2018-05-14T06:49:02.272Z,100.0
2018-05-14T06:50:03.895Z,100.0
2018-05-14T06:51:05.523Z,100.0
2018-05-14T06:52:07.236Z,100.0
2018-05-14T06:53:08.770Z,100.0
2018-05-14T06:54:10.442Z,100.0
2018-05-14T06:55:12.052Z,100.0
2018-05-14T06:56:13.646Z,100.0
2018-05-14T06:57:15.271Z,99.8
2018-05-14T06:58:16.893Z,98.2
2018-05-14T06:59:18.521Z,96.6
2018-05-14T07:00:20.139Z,95.4
2018-05-14T07:01:21.768Z,90.9
2018-05-14T07:02:23.393Z,90.3
2018-05-14T07:03:25.016Z,92.6
2018-05-14T07:04:26.637Z,91.1
2018-05-14T07:05:28.269Z,89.4
2018-05-14T07:06:29.898Z,89.3
2018-05-14T07:07:31.523Z,87.8
2018-05-14T07:08:33.141Z,86.8
2018-05-14T07:09:34.772Z,85.4
2018-05-14T07:10:36.399Z,86.1
2018-05-14T07:11:38.025Z,82.8
2018-05-14T07:12:39.649Z,83.6
2018-05-14T07:13:41.283Z,82.4
2018-05-14T07:14:42.910Z,83.1
2018-05-14T07:15:44.531Z,83.6
2018-05-14T07:16:46.161Z,84.0
2018-05-14T07:17:47.786Z,85.0
2018-05-14T07:18:49.416Z,85.2
2018-05-14T07:19:51.038Z,86.1
2018-05-14T07:20:52.666Z,85.5
2018-05-14T07:21:54.295Z,87.1
2018-05-14T07:22:55.918Z,86.6
2018-05-14T07:23:57.541Z,85.1
2018-05-14T07:24:59.166Z,85.6
2018-05-14T07:26:00.800Z,84.7
2018-05-14T07:27:02.425Z,85.2
2018-05-14T07:28:04.050Z,81.6
2018-05-14T07:29:05.674Z,80.1
2018-05-14T07:30:07.327Z,83.2
2018-05-14T07:31:08.944Z,80.5
2018-05-14T07:32:10.567Z,79.7
2018-05-14T07:33:12.193Z,78.4
2018-05-14T07:34:13.825Z,76.8
2018-05-14T07:35:15.453Z,76.8
2018-05-14T07:36:17.086Z,74.7
2018-05-14T07:37:18.712Z,74.1
2018-05-14T07:38:20.336Z,73.0
2018-05-14T07:39:21.967Z,73.1
2018-05-14T07:40:23.653Z,74.2
2018-05-14T07:41:25.231Z,72.1
2018-05-14T07:42:26.860Z,69.2
2018-05-14T07:43:28.493Z,69.0
2018-05-14T07:44:30.122Z,70.6
2018-05-14T07:45:31.753Z,71.0
2018-05-14T07:46:33.378Z,70.8
2018-05-14T07:47:35.007Z,66.5
2018-05-14T07:48:36.643Z,67.4
2018-05-14T07:49:38.273Z,69.3
2018-05-14T07:50:40.007Z,67.5
2018-05-14T07:51:41.531Z,66.4
2018-05-14T07:52:43.161Z,64.4
2018-05-14T07:53:44.793Z,66.8
2018-05-14T07:54:46.427Z,66.2
2018-05-14T07:55:48.062Z,65.9
2018-05-14T07:56:49.858Z,66.2
2018-05-14T07:57:51.326Z,65.1
2018-05-14T07:58:52.958Z,65.2
2018-05-14T07:59:54.584Z,65.0
2018-05-14T08:00:56.219Z,64.8
2018-05-14T08:01:57.854Z,62.0
2018-05-14T08:02:59.481Z,61.6
2018-05-14T08:04:01.124Z,61.6
2018-05-14T08:05:02.752Z,60.4
2018-05-14T08:06:04.384Z,58.5
2018-05-14T08:07:06.021Z,58.4
2018-05-14T08:08:07.659Z,58.2
2018-05-14T08:09:09.290Z,56.6
2018-05-14T08:10:10.930Z,56.1
2018-05-14T08:11:12.567Z,55.1
2018-05-14T08:12:14.201Z,54.4
2018-05-14T08:13:15.843Z,53.4
2018-05-14T08:14:17.478Z,54.4
2018-05-14T08:15:19.115Z,54.8
2018-05-14T08:16:20.840Z,54.9
2018-05-14T08:17:22.476Z,51.7
2018-05-14T08:18:24.120Z,52.4
2018-05-14T08:19:25.751Z,52.4
2018-05-14T08:20:27.384Z,53.2
2018-05-14T08:21:29.024Z,53.4
2018-05-14T08:22:30.661Z,53.4
2018-05-14T08:23:32.399Z,52.2
2018-05-14T08:24:33.936Z,53.4
2018-05-14T08:25:35.581Z,52.6
2018-05-14T08:26:37.216Z,51.3
2018-05-14T08:27:38.859Z,51.4
2018-05-14T08:28:40.493Z,50.7
2018-05-14T08:29:42.128Z,51.9
2018-05-14T08:30:43.773Z,50.5
2018-05-14T08:31:45.411Z,51.0
2018-05-14T08:32:47.045Z,49.6
2018-05-14T08:33:48.692Z,50.3
2018-05-14T08:34:50.326Z,50.9
2018-05-14T08:35:51.961Z,49.6
2018-05-14T08:36:53.600Z,49.5
2018-05-14T08:37:55.244Z,50.1
2018-05-14T08:38:56.889Z,50.3
2018-05-14T08:39:58.721Z,49.8
2018-05-14T08:41:00.162Z,48.8
2018-05-14T08:42:01.802Z,48.7
2018-05-14T08:43:03.437Z,49.2
2018-05-14T08:44:05.080Z,48.5
2018-05-14T08:45:06.720Z,49.3
2018-05-14T08:46:08.360Z,48.6
2018-05-14T08:47:09.998Z,48.1
2018-05-14T08:48:11.635Z,48.6
2018-05-14T08:49:13.277Z,47.9
2018-05-14T08:50:14.916Z,46.2
2018-05-14T08:51:16.556Z,47.2
2018-05-14T08:52:18.201Z,48.2
2018-05-14T08:53:19.837Z,46.5
2018-05-14T08:54:21.566Z,48.1
2018-05-14T08:55:23.117Z,47.0
2018-05-14T08:56:24.760Z,47.0
2018-05-14T08:57:26.396Z,44.4
2018-05-14T08:58:28.035Z,45.9
2018-05-14T08:59:29.682Z,47.5
2018-05-14T09:00:31.328Z,46.5
2018-05-14T09:01:32.971Z,46.6
2018-05-14T09:02:34.612Z,47.2
2018-05-14T09:03:36.249Z,45.3
2018-05-14T09:04:37.896Z,44.7
2018-05-14T09:05:39.537Z,45.3
2018-05-14T09:06:41.176Z,44.3
2018-05-14T09:07:42.817Z,44.6
2018-05-14T09:08:44.525Z,45.9
2018-05-14T09:09:46.100Z,45.3
2018-05-14T09:10:47.745Z,45.1
2018-05-14T09:11:49.389Z,45.1
2018-05-14T09:12:51.027Z,44.8
2018-05-14T09:13:52.674Z,43.2
2018-05-14T09:14:54.313Z,44.3
2018-05-14T09:15:58.130Z,43.9
2018-05-14T09:16:59.939Z,45.1
2018-05-14T09:18:01.567Z,45.1
2018-05-14T09:19:03.228Z,45.7
2018-05-14T09:20:04.998Z,45.7
2018-05-14T09:21:06.815Z,46.6
2018-05-14T09:22:08.455Z,45.3
2018-05-14T09:23:10.333Z,45.7
2018-05-14T09:24:11.985Z,45.8
2018-05-14T09:25:13.627Z,46.1
2018-05-14T09:26:15.270Z,45.8
2018-05-14T09:27:16.908Z,46.0
2018-05-14T09:28:18.549Z,45.8
2018-05-14T09:29:20.195Z,46.8
2018-05-14T09:30:21.835Z,47.2
2018-05-14T09:31:23.538Z,46.6
2018-05-14T09:32:25.121Z,45.3
2018-05-14T09:33:26.767Z,46.2
2018-05-14T09:34:28.404Z,44.6
2018-05-14T09:35:30.046Z,45.9
2018-05-14T09:36:31.693Z,46.1
2018-05-14T09:37:33.348Z,45.2
2018-05-14T09:38:34.970Z,46.0
2018-05-14T09:39:36.616Z,46.0
2018-05-14T09:40:38.252Z,44.9
2018-05-14T09:41:39.900Z,45.3
2018-05-14T09:42:41.538Z,45.2
2018-05-14T09:43:43.182Z,45.8
2018-05-14T09:44:44.824Z,45.2
2018-05-14T09:45:46.468Z,45.6
2018-05-14T09:46:48.109Z,45.1
2018-05-14T09:47:49.753Z,44.2
2018-05-14T09:48:51.394Z,43.5
2018-05-14T09:49:53.043Z,44.3
2018-05-14T09:50:54.681Z,45.4
2018-05-14T09:51:56.329Z,45.1
2018-05-14T09:52:57.971Z,44.2
2018-05-14T09:53:59.613Z,44.0
2018-05-14T09:55:01.257Z,44.1
2018-05-14T09:56:02.898Z,42.9
2018-05-14T09:57:04.542Z,43.8
2018-05-14T09:58:06.188Z,43.4
2018-05-14T09:59:07.832Z,42.8
2018-05-14T10:00:09.471Z,42.3
2018-05-14T10:01:11.113Z,43.0
2018-05-14T10:02:12.763Z,42.2
2018-05-14T10:03:14.405Z,44.0
2018-05-14T10:04:16.047Z,43.0
2018-05-14T10:05:17.689Z,43.0
2018-05-14T10:06:19.336Z,43.9
2018-05-14T10:07:20.979Z,42.8
2018-05-14T10:08:22.621Z,45.9
2018-05-14T10:09:24.262Z,44.6
2018-05-14T10:10:25.905Z,44.2
2018-05-14T10:11:27.549Z,45.0
2018-05-14T10:12:29.190Z,43.8
2018-05-14T10:13:30.833Z,44.2
2018-05-14T10:14:32.478Z,45.2
2018-05-14T10:15:34.117Z,43.1
2018-05-14T10:16:35.761Z,43.5
2018-05-14T10:17:37.408Z,42.1
2018-05-14T10:18:39.117Z,42.9
2018-05-14T10:19:40.691Z,43.0
2018-05-14T10:20:42.337Z,43.3
2018-05-14T10:21:43.975Z,42.8
2018-05-14T10:22:45.620Z,43.9
2018-05-14T10:23:47.257Z,43.2
2018-05-14T10:24:48.906Z,43.3
2018-05-14T10:25:50.787Z,42.4
2018-05-14T10:26:52.188Z,42.8
2018-05-14T10:27:53.836Z,42.9
2018-05-14T10:28:55.475Z,42.5
2018-05-14T10:29:57.126Z,42.9
2018-05-14T10:30:58.762Z,42.9
2018-05-14T10:32:00.485Z,42.9
2018-05-14T10:33:02.051Z,43.0
2018-05-14T10:34:03.694Z,42.7
2018-05-14T10:35:05.347Z,41.8
2018-05-14T10:36:06.983Z,42.1
2018-05-14T10:37:08.633Z,42.2
2018-05-14T10:38:10.275Z,41.6
2018-05-14T10:39:11.924Z,40.6
2018-05-14T10:40:13.569Z,40.7
2018-05-14T10:41:15.218Z,40.2
2018-05-14T10:42:16.863Z,41.1
2018-05-14T10:43:18.507Z,40.1
2018-05-14T10:44:20.153Z,39.5
2018-05-14T10:45:21.791Z,39.4
2018-05-14T10:46:23.438Z,39.6
2018-05-14T10:47:25.082Z,39.2
2018-05-14T10:48:26.733Z,39.4
2018-05-14T10:49:28.374Z,40.0
2018-05-14T10:50:30.020Z,41.3
2018-05-14T10:51:31.659Z,40.8
2018-05-14T10:52:33.302Z,41.2
2018-05-14T10:53:34.953Z,41.2
2018-05-14T10:54:36.596Z,41.0
2018-05-14T10:55:38.267Z,40.4
2018-05-14T10:56:39.908Z,40.6
2018-05-14T10:57:41.554Z,39.6
2018-05-14T10:58:43.204Z,40.6
2018-05-14T10:59:44.845Z,39.4
2018-05-14T11:00:46.489Z,39.3
2018-05-14T11:01:48.136Z,40.0
2018-05-14T11:02:49.783Z,39.3
2018-05-14T11:03:51.485Z,39.5
2018-05-14T11:04:53.073Z,37.8
2018-05-14T11:05:54.715Z,39.3
2018-05-14T11:06:56.360Z,37.7
2018-05-14T11:07:58.002Z,37.9
2018-05-14T11:08:59.646Z,39.0
2018-05-14T11:10:01.289Z,39.3
2018-05-14T11:11:02.931Z,38.2
2018-05-14T11:12:04.577Z,39.9
2018-05-14T11:13:06.221Z,39.1
2018-05-14T11:14:07.862Z,39.7
2018-05-14T11:15:09.513Z,38.7
2018-05-14T11:16:11.159Z,39.2
2018-05-14T11:17:12.798Z,38.8
2018-05-14T11:18:14.463Z,38.9
2018-05-14T11:19:16.102Z,39.6
2018-05-14T11:20:17.741Z,40.4
2018-05-14T11:21:19.388Z,39.0
2018-05-14T11:22:21.023Z,39.2
2018-05-14T11:23:22.661Z,41.0
2018-05-14T11:24:24.309Z,40.1
2018-05-14T11:25:25.950Z,39.2
2018-05-14T11:26:27.591Z,39.0
2018-05-14T11:27:29.285Z,37.9
2018-05-14T11:28:30.871Z,38.3
2018-05-14T11:29:32.504Z,38.9
2018-05-14T11:30:34.148Z,38.2
2018-05-14T11:31:35.795Z,37.5
2018-05-14T11:32:37.433Z,36.9
2018-05-14T11:33:39.078Z,36.1
2018-05-14T11:34:40.791Z,35.4
2018-05-14T11:35:42.357Z,34.7
2018-05-14T11:36:44.003Z,35.4
2018-05-14T11:37:45.645Z,36.6
2018-05-14T11:38:47.285Z,35.9
2018-05-14T11:39:48.931Z,36.9
2018-05-14T11:40:50.569Z,37.0
2018-05-14T11:41:52.205Z,36.5
2018-05-14T11:42:53.987Z,35.9
2018-05-14T11:43:55.768Z,36.4
2018-05-14T11:44:57.520Z,35.5
2018-05-14T11:45:59.140Z,34.5
2018-05-14T11:47:00.795Z,36.5
2018-05-14T11:48:02.425Z,36.0
2018-05-14T11:49:04.070Z,35.0
2018-05-14T11:50:05.709Z,36.6
2018-05-14T11:51:07.351Z,37.5
2018-05-14T11:52:08.997Z,36.6
2018-05-14T11:53:10.634Z,36.1
2018-05-14T11:54:12.280Z,35.7
2018-05-14T11:55:13.923Z,37.0
2018-05-14T11:56:15.557Z,37.9
2018-05-14T11:57:17.197Z,37.3
2018-05-14T11:58:18.848Z,36.3
2018-05-14T11:59:20.480Z,36.5
2018-05-14T12:00:22.120Z,35.5
2018-05-14T12:01:23.786Z,35.4
2018-05-14T12:02:25.424Z,35.8
2018-05-14T12:03:27.069Z,36.8
2018-05-14T12:04:28.715Z,35.7
2018-05-14T12:05:30.349Z,35.9
2018-05-14T12:06:31.995Z,37.0
2018-05-14T12:07:33.641Z,36.6
2018-05-14T12:08:35.284Z,38.1
2018-05-14T12:09:36.920Z,36.6
2018-05-14T12:10:38.561Z,37.7
2018-05-14T12:11:40.204Z,36.8
2018-05-14T12:12:42.444Z,36.7
2018-05-14T12:13:43.430Z,35.4
2018-05-14T12:14:45.070Z,36.0
2018-05-14T12:15:46.716Z,35.9
2018-05-14T12:16:48.356Z,35.2
2018-05-14T12:17:49.994Z,35.6
2018-05-14T12:18:51.633Z,34.7
2018-05-14T12:19:53.271Z,35.1
2018-05-14T12:20:54.908Z,35.4
2018-05-14T12:21:56.556Z,34.1
2018-05-14T12:22:58.198Z,33.7
2018-05-14T12:23:59.836Z,34.1
2018-05-14T12:25:01.476Z,33.5
2018-05-14T12:26:03.120Z,33.4
2018-05-14T12:27:04.761Z,33.6
2018-05-14T12:28:06.405Z,34.0
2018-05-14T12:29:08.042Z,33.6
2018-05-14T12:30:09.684Z,34.8
2018-05-14T12:31:11.321Z,34.2
2018-05-14T12:32:12.964Z,35.3
2018-05-14T12:33:14.606Z,36.1
2018-05-14T12:34:16.242Z,34.9
2018-05-14T12:35:17.882Z,34.4
2018-05-14T12:36:19.532Z,35.2
2018-05-14T12:37:21.169Z,35.2
2018-05-14T12:38:22.803Z,34.7
2018-05-14T12:39:24.444Z,35.1
2018-05-14T12:40:26.080Z,36.0
2018-05-14T12:41:27.724Z,35.9
2018-05-14T12:42:29.359Z,36.0
2018-05-14T12:43:31.001Z,35.6
2018-05-14T12:44:32.639Z,35.3
2018-05-14T12:45:34.281Z,34.7
2018-05-14T12:46:35.919Z,35.1
2018-05-14T12:47:37.554Z,34.5
2018-05-14T12:48:39.198Z,34.9
2018-05-14T12:49:40.843Z,34.5
2018-05-14T12:50:42.479Z,34.1
2018-05-14T12:51:44.117Z,34.1
2018-05-14T12:52:45.762Z,33.4
2018-05-14T12:53:47.389Z,34.8
2018-05-14T12:54:49.033Z,34.4
2018-05-14T12:55:50.671Z,33.5
2018-05-14T12:56:52.308Z,33.8
2018-05-14T12:57:53.952Z,33.6
2018-05-14T12:58:55.590Z,33.4
2018-05-14T12:59:57.228Z,34.0
2018-05-14T13:00:58.863Z,33.9
2018-05-14T13:02:00.500Z,33.8
2018-05-14T13:03:02.138Z,34.1
2018-05-14T13:04:03.779Z,34.2
2018-05-14T13:05:05.422Z,33.9
2018-05-14T13:06:07.063Z,34.6
2018-05-14T13:07:08.698Z,33.9
2018-05-14T13:08:10.340Z,33.1
2018-05-14T13:09:11.975Z,34.1
2018-05-14T13:10:13.612Z,33.2
2018-05-14T13:11:15.257Z,33.3
2018-05-14T13:12:16.893Z,33.0
2018-05-14T13:13:18.534Z,33.5
2018-05-14T13:14:20.177Z,32.9
2018-05-14T13:15:21.809Z,32.2
2018-05-14T13:16:23.444Z,31.9
2018-05-14T13:17:25.085Z,33.2
2018-05-14T13:18:26.721Z,32.8
2018-05-14T13:19:28.361Z,32.9
2018-05-14T13:20:30.001Z,32.8
2018-05-14T13:21:31.636Z,31.4
2018-05-14T13:22:33.280Z,31.9
2018-05-14T13:23:34.918Z,33.9
2018-05-14T13:24:36.553Z,32.8
2018-05-14T13:25:38.196Z,33.4
2018-05-14T13:26:39.830Z,33.5